Ortonville, MN

5:19 PM CDT on July 21, 2017 (GMT -0500)
Ortonville Municipal-Martinson

Weather History for KVVV - June, 2013

Change the Weather History Date:

Sunday, June 16, 2013

  Actual Average (KAQP) Record (KAQP)
Temperature  
Mean Temperature 70 °F -  
Max Temperature 84 °F 75 °F 91 °F (2003)
Min Temperature 57 °F 53 °F 42 °F (2008)
Cooling Degree Days 6    
Growing Degree Days 20 (Base 50)    
Moisture  
Dew Point 50 °F    
Average Humidity 48    
Maximum Humidity 77    
Minimum Humidity 27    
Precipitation  
Precipitation 0.01 in - - ()
Sea Level Pressure  
Sea Level Pressure 29.92 in    
Wind  
Wind Speed 8 mph (West)    
Max Wind Speed 21 mph    
Max Gust Speed 31 mph    
Visibility 10 miles    
Events Rain    
Averages and records for this station are not official NWS values.
T = Trace of Precipitation, MM = Missing Value Source: NWS Daily Summary

Daily Weather History Graph

Daily Weather History Graph

Search for Another Location

Airport or City:

Trip Planner

Search our weather history database for the weather conditions in past years. The results will help you decide how hot, cold, wet, or windy it might be!

Date:

Astronomy

Jun. 16, 2013 Rise Set
Actual Time 5:37 AM CDT 9:15 PM CDT
Civil Twilight 4:59 AM CDT 9:53 PM CDT
Nautical Twilight 4:09 AM CDT 10:44 PM CDT
Astronomical Twilight 3:01 AM CDT 11:51 PM CDT
Moon 1:35 PM CDT (6/16) 1:02 AM CDT (6/16)
Length of Visible Light 16h 54m
Length of Day
15h 38m
Waxing Crescent, 50% of the Moon is Illuminated
Jun 16
Waxing Crescent
Jun 16
First Quarter
Jun 23
Full
Jun 29
Last Quarter
Jul 8
New

Hourly Weather History & Observations

Time (CDT) Temp. Dew Point Humidity Pressure Visibility Wind Dir Wind Speed Gust Speed Precip Events Conditions
12:14 AM 69.8 °F 46.4 °F 43% 29.92 in 10.0 mi West 8.1 mph - N/A   Clear
12:34 AM 66.2 °F 48.2 °F 52% 29.92 in 10.0 mi WNW 4.6 mph - N/A   Clear
12:53 AM 66.2 °F 46.4 °F 49% 29.92 in 10.0 mi West 6.9 mph - N/A   Clear
1:14 AM 64.4 °F 46.4 °F 52% 29.92 in 10.0 mi WNW 10.4 mph - N/A   Clear
1:34 AM 64.4 °F 46.4 °F 52% 29.92 in 10.0 mi WNW 9.2 mph - N/A   Clear
1:53 AM 64.4 °F 46.4 °F 52% 29.92 in 10.0 mi WNW 8.1 mph - N/A   Clear
2:14 AM 64.4 °F 46.4 °F 52% 29.92 in 10.0 mi WNW 5.8 mph - N/A   Clear
2:34 AM 62.6 °F 46.4 °F 55% 29.92 in 10.0 mi WNW 5.8 mph - N/A   Clear
2:53 AM 62.6 °F 48.2 °F 59% 29.92 in 10.0 mi West 4.6 mph - N/A   Clear
3:14 AM 60.8 °F 48.2 °F 63% 29.92 in 10.0 mi West 3.5 mph - N/A   Clear
3:34 AM 59.0 °F 48.2 °F 67% 29.92 in 10.0 mi West 3.5 mph - N/A   Clear
3:53 AM 57.2 °F 48.2 °F 72% 29.93 in 10.0 mi West 4.6 mph - N/A   Clear
4:14 AM 59.0 °F 48.2 °F 67% 29.93 in 10.0 mi WSW 4.6 mph - N/A   Clear
4:33 AM 57.2 °F 48.2 °F 72% 29.93 in 10.0 mi WNW 3.5 mph - N/A   Clear
4:54 AM 57.2 °F 48.2 °F 72% 29.93 in 10.0 mi West 3.5 mph - N/A   Clear
5:14 AM 57.2 °F 50.0 °F 77% 29.93 in 10.0 mi Calm Calm - N/A   Clear
5:33 AM 57.2 °F 48.2 °F 72% 29.94 in 10.0 mi WSW 4.6 mph - N/A   Clear
5:54 AM 57.2 °F 48.2 °F 72% 29.94 in 10.0 mi West 5.8 mph - N/A   Clear
6:14 AM 57.2 °F 48.2 °F 72% 29.94 in 10.0 mi WSW 4.6 mph - N/A   Clear
6:33 AM 59.0 °F 48.2 °F 67% 29.95 in 10.0 mi WSW 6.9 mph - N/A   Clear
6:54 AM 60.8 °F 48.2 °F 63% 29.95 in 10.0 mi WSW 4.6 mph - N/A   Clear
7:14 AM 62.6 °F 48.2 °F 59% 29.95 in 10.0 mi West 4.6 mph - N/A   Clear
7:33 AM 64.4 °F 48.2 °F 56% 29.95 in 10.0 mi West 5.8 mph - N/A   Clear
7:54 AM 66.2 °F 50.0 °F 56% 29.95 in 10.0 mi West 3.5 mph - N/A   Clear
8:14 AM 68.0 °F 51.8 °F 56% 29.95 in 10.0 mi West 4.6 mph - N/A   Clear
8:33 AM 69.8 °F 51.8 °F 53% 29.94 in 10.0 mi West 4.6 mph - N/A   Clear
8:54 AM 71.6 °F 51.8 °F 50% 29.94 in 10.0 mi West 3.5 mph - N/A   Clear
9:14 AM 75.2 °F 51.8 °F 44% 29.94 in 10.0 mi West 4.6 mph - N/A   Clear
9:34 AM 75.2 °F 50.0 °F 41% 29.94 in 10.0 mi WSW 6.9 mph - N/A   Clear
9:54 AM 77.0 °F 48.2 °F 36% 29.94 in 10.0 mi WSW 8.1 mph - N/A   Clear
10:14 AM 80.6 °F 46.4 °F 30% 29.94 in 10.0 mi WSW 9.2 mph - N/A   Clear
10:34 AM 80.6 °F 46.4 °F 30% 29.93 in 10.0 mi West 11.5 mph - N/A   Clear
10:54 AM 80.6 °F 44.6 °F 28% 29.92 in 10.0 mi WSW 11.5 mph - N/A   Clear
11:13 AM 80.6 °F 44.6 °F 28% 29.92 in 10.0 mi West 13.8 mph 20.7 mph N/A   Clear
11:34 AM 82.4 °F 46.4 °F 28% 29.92 in 10.0 mi West 10.4 mph 16.1 mph N/A   Clear
11:54 AM 82.4 °F 46.4 °F 28% 29.91 in 10.0 mi West 10.4 mph - N/A   Clear
12:13 PM 82.4 °F 48.2 °F 30% 29.91 in 10.0 mi West 9.2 mph - N/A   Clear
12:34 PM 82.4 °F 48.2 °F 30% 29.91 in 10.0 mi West 10.4 mph 21.9 mph N/A   Clear
12:54 PM 84.2 °F 46.4 °F 27% 29.91 in 10.0 mi WNW 17.3 mph 20.7 mph N/A   Clear
1:13 PM 82.4 °F 46.4 °F 28% 29.92 in 10.0 mi West 16.1 mph 21.9 mph N/A   Clear
1:34 PM 84.2 °F 46.4 °F 27% 29.92 in 10.0 mi West 16.1 mph 25.3 mph N/A   Clear
1:54 PM 84.2 °F 48.2 °F 29% 29.92 in 10.0 mi West 13.8 mph 25.3 mph N/A   Clear
2:13 PM 84.2 °F 48.2 °F 29% 29.91 in 10.0 mi West 18.4 mph 24.2 mph N/A   Clear
2:34 PM 84.2 °F 50.0 °F 30% 29.91 in 10.0 mi West 16.1 mph 20.7 mph N/A   Clear
2:54 PM 82.4 °F 48.2 °F 30% 29.90 in 10.0 mi West 16.1 mph 23.0 mph N/A   Scattered Clouds
3:14 PM 82.4 °F 48.2 °F 30% 29.90 in 10.0 mi West 17.3 mph 23.0 mph N/A   Scattered Clouds
3:34 PM 80.6 °F 48.2 °F 32% 29.91 in 10.0 mi WSW 11.5 mph 19.6 mph N/A   Scattered Clouds
3:54 PM 75.2 °F 55.4 °F 50% 29.93 in 10.0 mi West 20.7 mph 28.8 mph N/A Rain Light Rain
4:14 PM 75.2 °F 51.8 °F 44% 29.92 in 10.0 mi WSW 17.3 mph 31.1 mph N/A   Scattered Clouds
4:34 PM 77.0 °F 48.2 °F 36% 29.91 in 10.0 mi WSW 11.5 mph - N/A   Clear
4:53 PM 77.0 °F 51.8 °F 41% 29.90 in 10.0 mi WSW 9.2 mph - N/A   Scattered Clouds
5:14 PM 75.2 °F 53.6 °F 47% 29.91 in 10.0 mi West 9.2 mph - N/A Rain Light Rain
5:34 PM 75.2 °F 53.6 °F 47% 29.90 in 10.0 mi West 4.6 mph - N/A   Mostly Cloudy
5:53 PM 77.0 °F 46.4 °F 34% 29.90 in 10.0 mi North 5.8 mph - N/A   Mostly Cloudy
6:14 PM 75.2 °F 53.6 °F 47% 29.91 in 7.0 mi West 5.8 mph - N/A Rain Rain
6:33 PM 77.0 °F 53.6 °F 44% 29.88 in 10.0 mi Calm Calm - 0.01 in   Scattered Clouds
6:54 PM 78.8 °F 53.6 °F 42% 29.87 in 10.0 mi WSW 3.5 mph - 0.01 in   Clear
7:14 PM 78.8 °F 51.8 °F 39% 29.87 in 10.0 mi WSW 5.8 mph - N/A   Clear
7:34 PM 78.8 °F 51.8 °F 39% 29.87 in 10.0 mi WSW 5.8 mph - N/A   Clear
7:54 PM 78.8 °F 53.6 °F 42% 29.87 in 10.0 mi WSW 9.2 mph - N/A   Clear
8:14 PM 77.0 °F 53.6 °F 44% 29.86 in 10.0 mi WSW 5.8 mph - N/A   Clear
8:34 PM 75.2 °F 51.8 °F 44% 29.86 in 10.0 mi WSW 9.2 mph - N/A   Clear
8:53 PM 73.4 °F 50.0 °F 44% 29.87 in 10.0 mi WSW 6.9 mph - N/A   Clear
9:14 PM 73.4 °F 51.8 °F 47% 29.88 in 10.0 mi WSW 5.8 mph - N/A   Clear
9:34 PM 71.6 °F 53.6 °F 53% 29.88 in 10.0 mi West 4.6 mph - N/A   Clear
9:53 PM 71.6 °F 53.6 °F 53% 29.89 in 10.0 mi West 6.9 mph - N/A   Clear
10:14 PM 71.6 °F 53.6 °F 53% 29.91 in 10.0 mi West 9.2 mph - N/A   Clear
10:33 PM 71.6 °F 53.6 °F 53% 29.91 in 10.0 mi WNW 8.1 mph - N/A   Clear
10:54 PM 71.6 °F 53.6 °F 53% 29.91 in 10.0 mi WNW 6.9 mph - N/A   Clear
11:14 PM 69.8 °F 53.6 °F 56% 29.91 in 10.0 mi WNW 6.9 mph - N/A   Clear
11:33 PM 68.0 °F 53.6 °F 60% 29.91 in 10.0 mi WNW 6.9 mph - N/A   Clear
11:54 PM 66.2 °F 53.6 °F 64% 29.92 in 10.0 mi WNW 5.8 mph - N/A   Clear